sensor_id;sensor_type;location;lat;lon;timestamp;temperature;humidity
10419;DHT22;5256;48.728;9.140;2023-02-15T00:02:13;-1.80;99.90
10419;DHT22;5256;48.728;9.140;2023-02-15T00:04:38;-1.90;99.90
10419;DHT22;5256;48.728;9.140;2023-02-15T00:07:17;-2.00;99.90
10419;DHT22;5256;48.728;9.140;2023-02-15T00:09:48;-2.00;99.90
10419;DHT22;5256;48.728;9.140;2023-02-15T00:12:15;-1.90;99.90
10419;DHT22;5256;48.728;9.140;2023-02-15T00:14:41;-1.80;99.90
10419;DHT22;5256;48.728;9.140;2023-02-15T00:17:07;-1.80;99.90
10419;DHT22;5256;48.728;9.140;2023-02-15T00:19:33;-1.80;99.90
10419;DHT22;5256;48.728;9.140;2023-02-15T00:21:59;-1.90;99.90
10419;DHT22;5256;48.728;9.140;2023-02-15T00:24:25;-1.90;99.90
10419;DHT22;5256;48.728;9.140;2023-02-15T00:26:51;-2.00;99.90
10419;DHT22;5256;48.728;9.140;2023-02-15T00:29:17;-2.00;99.90
10419;DHT22;5256;48.728;9.140;2023-02-15T00:31:43;-2.10;99.90
10419;DHT22;5256;48.728;9.140;2023-02-15T00:34:24;-2.10;99.90
10419;DHT22;5256;48.728;9.140;2023-02-15T00:36:50;-2.20;99.90
10419;DHT22;5256;48.728;9.140;2023-02-15T00:39:17;-2.20;99.90
10419;DHT22;5256;48.728;9.140;2023-02-15T00:41:42;-2.10;99.90
10419;DHT22;5256;48.728;9.140;2023-02-15T00:44:08;-1.90;99.90
10419;DHT22;5256;48.728;9.140;2023-02-15T00:46:34;-1.80;99.90
10419;DHT22;5256;48.728;9.140;2023-02-15T00:49:00;-1.70;99.90
10419;DHT22;5256;48.728;9.140;2023-02-15T00:51:26;-1.70;99.90
10419;DHT22;5256;48.728;9.140;2023-02-15T00:53:52;-1.80;99.90
10419;DHT22;5256;48.728;9.140;2023-02-15T00:56:17;-1.90;99.90
10419;DHT22;5256;48.728;9.140;2023-02-15T00:58:43;-2.00;99.90
10419;DHT22;5256;48.728;9.140;2023-02-15T01:01:11;-2.10;99.90
10419;DHT22;5256;48.728;9.140;2023-02-15T01:03:37;-2.10;99.90
10419;DHT22;5256;48.728;9.140;2023-02-15T01:06:04;-2.10;99.90
10419;DHT22;5256;48.728;9.140;2023-02-15T01:08:30;-2.20;99.90
10419;DHT22;5256;48.728;9.140;2023-02-15T01:10:55;-2.30;99.90
10419;DHT22;5256;48.728;9.140;2023-02-15T01:13:22;-2.30;99.90
10419;DHT22;5256;48.728;9.140;2023-02-15T01:15:53;-2.20;99.90
10419;DHT22;5256;48.728;9.140;2023-02-15T01:18:19;-2.20;99.90
10419;DHT22;5256;48.728;9.140;2023-02-15T01:20:46;-2.20;99.90
10419;DHT22;5256;48.728;9.140;2023-02-15T01:23:12;-2.20;99.90
10419;DHT22;5256;48.728;9.140;2023-02-15T01:25:38;-2.20;99.90
10419;DHT22;5256;48.728;9.140;2023-02-15T01:28:04;-2.10;99.90
10419;DHT22;5256;48.728;9.140;2023-02-15T01:30:30;-2.10;99.90
10419;DHT22;5256;48.728;9.140;2023-02-15T01:32:55;-1.90;99.90
10419;DHT22;5256;48.728;9.140;2023-02-15T01:35:21;-1.90;99.90
10419;DHT22;5256;48.728;9.140;2023-02-15T01:37:47;-1.90;99.90
10419;DHT22;5256;48.728;9.140;2023-02-15T01:40:14;-1.80;99.90
10419;DHT22;5256;48.728;9.140;2023-02-15T01:42:40;-1.90;99.90
10419;DHT22;5256;48.728;9.140;2023-02-15T01:45:28;-2.00;99.90
10419;DHT22;5256;48.728;9.140;2023-02-15T01:50:41;-2.10;99.90
10419;DHT22;5256;48.728;9.140;2023-02-15T01:53:18;-2.20;99.90
10419;DHT22;5256;48.728;9.140;2023-02-15T01:56:00;-2.20;99.90
10419;DHT22;5256;48.728;9.140;2023-02-15T01:58:27;-2.20;99.90
10419;DHT22;5256;48.728;9.140;2023-02-15T02:00:55;-2.30;99.90
10419;DHT22;5256;48.728;9.140;2023-02-15T02:03:42;-2.30;99.90
10419;DHT22;5256;48.728;9.140;2023-02-15T02:06:09;-2.30;99.90
10419;DHT22;5256;48.728;9.140;2023-02-15T02:08:35;-2.30;99.90
10419;DHT22;5256;48.728;9.140;2023-02-15T02:11:01;-2.30;99.90
10419;DHT22;5256;48.728;9.140;2023-02-15T02:13:27;-2.30;99.90
10419;DHT22;5256;48.728;9.140;2023-02-15T02:16:00;-2.30;99.90
10419;DHT22;5256;48.728;9.140;2023-02-15T02:18:59;-2.40;99.90
10419;DHT22;5256;48.728;9.140;2023-02-15T02:30:33;-2.60;99.90
10419;DHT22;5256;48.728;9.140;2023-02-15T02:35:45;-2.60;99.90
10419;DHT22;5256;48.728;9.140;2023-02-15T02:39:16;-2.70;99.90
10419;DHT22;5256;48.728;9.140;2023-02-15T02:41:31;-2.60;99.90
10419;DHT22;5256;48.728;9.140;2023-02-15T02:47:15;-2.60;99.90
10419;DHT22;5256;48.728;9.140;2023-02-15T02:49:43;-2.50;99.90
10419;DHT22;5256;48.728;9.140;2023-02-15T02:52:33;-2.50;99.90
10419;DHT22;5256;48.728;9.140;2023-02-15T02:55:01;-2.60;99.90
10419;DHT22;5256;48.728;9.140;2023-02-15T02:57:28;-2.70;99.90
10419;DHT22;5256;48.728;9.140;2023-02-15T02:59:56;-2.70;99.90
10419;DHT22;5256;48.728;9.140;2023-02-15T03:02:32;-2.60;99.90
10419;DHT22;5256;48.728;9.140;2023-02-15T03:05:02;-2.70;99.90
10419;DHT22;5256;48.728;9.140;2023-02-15T03:07:30;-2.80;99.90
10419;DHT22;5256;48.728;9.140;2023-02-15T03:10:00;-2.80;99.90
10419;DHT22;5256;48.728;9.140;2023-02-15T03:12:31;-2.70;99.90
10419;DHT22;5256;48.728;9.140;2023-02-15T03:15:05;-2.80;99.90
10419;DHT22;5256;48.728;9.140;2023-02-15T03:17:35;-2.80;99.90
10419;DHT22;5256;48.728;9.140;2023-02-15T03:20:14;-2.70;99.90
10419;DHT22;5256;48.728;9.140;2023-02-15T03:22:46;-2.60;99.90
10419;DHT22;5256;48.728;9.140;2023-02-15T03:25:26;-2.70;99.90
10419;DHT22;5256;48.728;9.140;2023-02-15T03:27:58;-2.70;99.90
10419;DHT22;5256;48.728;9.140;2023-02-15T03:30:25;-2.90;99.90
10419;DHT22;5256;48.728;9.140;2023-02-15T03:32:51;-2.90;99.90
10419;DHT22;5256;48.728;9.140;2023-02-15T03:35:22;-2.90;99.90
10419;DHT22;5256;48.728;9.140;2023-02-15T03:37:53;-2.90;99.90
10419;DHT22;5256;48.728;9.140;2023-02-15T03:40:28;-2.90;99.90
10419;DHT22;5256;48.728;9.140;2023-02-15T03:43:32;-2.90;99.90
10419;DHT22;5256;48.728;9.140;2023-02-15T03:46:34;-2.90;99.90
10419;DHT22;5256;48.728;9.140;2023-02-15T03:49:07;-2.90;99.90
10419;DHT22;5256;48.728;9.140;2023-02-15T03:51:36;-2.90;99.90
10419;DHT22;5256;48.728;9.140;2023-02-15T03:54:16;-2.90;99.90
10419;DHT22;5256;48.728;9.140;2023-02-15T03:57:04;-2.80;99.90
10419;DHT22;5256;48.728;9.140;2023-02-15T03:59:48;-2.80;99.90
10419;DHT22;5256;48.728;9.140;2023-02-15T04:02:40;-2.80;99.90
10419;DHT22;5256;48.728;9.140;2023-02-15T04:05:09;-2.70;99.90
10419;DHT22;5256;48.728;9.140;2023-02-15T04:07:34;-2.60;99.90
10419;DHT22;5256;48.728;9.140;2023-02-15T04:10:00;-2.60;99.90
10419;DHT22;5256;48.728;9.140;2023-02-15T04:12:44;-2.60;99.90
10419;DHT22;5256;48.728;9.140;2023-02-15T04:15:12;-2.70;99.90
10419;DHT22;5256;48.728;9.140;2023-02-15T04:17:56;-2.70;99.90
10419;DHT22;5256;48.728;9.140;2023-02-15T04:20:22;-2.70;99.90
10419;DHT22;5256;48.728;9.140;2023-02-15T04:23:06;-2.80;99.90
10419;DHT22;5256;48.728;9.140;2023-02-15T04:25:51;-2.80;99.90
10419;DHT22;5256;48.728;9.140;2023-02-15T04:28:17;-2.80;99.90
10419;DHT22;5256;48.728;9.140;2023-02-15T04:30:42;-2.90;99.90
10419;DHT22;5256;48.728;9.140;2023-02-15T04:33:08;-2.80;99.90
10419;DHT22;5256;48.728;9.140;2023-02-15T04:35:33;-2.70;99.90
10419;DHT22;5256;48.728;9.140;2023-02-15T04:37:59;-2.80;99.90
10419;DHT22;5256;48.728;9.140;2023-02-15T04:40:25;-2.80;99.90
10419;DHT22;5256;48.728;9.140;2023-02-15T04:42:51;-2.90;99.90
10419;DHT22;5256;48.728;9.140;2023-02-15T04:45:17;-2.90;99.90
10419;DHT22;5256;48.728;9.140;2023-02-15T04:47:43;-2.90;99.90
10419;DHT22;5256;48.728;9.140;2023-02-15T04:50:09;-2.90;99.90
10419;DHT22;5256;48.728;9.140;2023-02-15T04:52:35;-2.90;99.90
10419;DHT22;5256;48.728;9.140;2023-02-15T04:55:01;-2.90;99.90
10419;DHT22;5256;48.728;9.140;2023-02-15T04:57:27;-2.90;99.90
10419;DHT22;5256;48.728;9.140;2023-02-15T04:59:52;-3.00;99.90
10419;DHT22;5256;48.728;9.140;2023-02-15T05:02:18;-3.00;99.90
10419;DHT22;5256;48.728;9.140;2023-02-15T05:04:44;-3.10;99.90
10419;DHT22;5256;48.728;9.140;2023-02-15T05:07:09;-3.00;99.90
10419;DHT22;5256;48.728;9.140;2023-02-15T05:09:35;-3.00;99.90
10419;DHT22;5256;48.728;9.140;2023-02-15T05:12:00;-3.00;99.90
10419;DHT22;5256;48.728;9.140;2023-02-15T05:14:26;-3.10;99.90
10419;DHT22;5256;48.728;9.140;2023-02-15T05:16:51;-2.90;99.90
10419;DHT22;5256;48.728;9.140;2023-02-15T05:19:19;-2.80;99.90
10419;DHT22;5256;48.728;9.140;2023-02-15T05:21:44;-2.90;99.90
10419;DHT22;5256;48.728;9.140;2023-02-15T05:24:10;-2.80;99.90
10419;DHT22;5256;48.728;9.140;2023-02-15T05:26:54;-2.90;99.90
10419;DHT22;5256;48.728;9.140;2023-02-15T05:29:38;-3.00;99.90
10419;DHT22;5256;48.728;9.140;2023-02-15T05:32:04;-3.10;99.90
10419;DHT22;5256;48.728;9.140;2023-02-15T05:34:30;-3.20;99.90
10419;DHT22;5256;48.728;9.140;2023-02-15T05:36:55;-3.20;99.90
10419;DHT22;5256;48.728;9.140;2023-02-15T05:39:21;-3.30;99.90
10419;DHT22;5256;48.728;9.140;2023-02-15T05:41:47;-3.30;99.90
10419;DHT22;5256;48.728;9.140;2023-02-15T05:44:12;-3.30;99.90
10419;DHT22;5256;48.728;9.140;2023-02-15T05:46:38;-3.40;99.90
10419;DHT22;5256;48.728;9.140;2023-02-15T05:49:03;-3.30;99.90
10419;DHT22;5256;48.728;9.140;2023-02-15T05:51:29;-3.40;99.90
10419;DHT22;5256;48.728;9.140;2023-02-15T05:53:54;-3.40;99.90
10419;DHT22;5256;48.728;9.140;2023-02-15T05:56:20;-3.40;99.90
10419;DHT22;5256;48.728;9.140;2023-02-15T05:58:46;-3.40;99.90
10419;DHT22;5256;48.728;9.140;2023-02-15T06:01:17;-3.40;99.90
10419;DHT22;5256;48.728;9.140;2023-02-15T06:03:43;-3.40;99.90
10419;DHT22;5256;48.728;9.140;2023-02-15T06:06:09;-3.30;99.90
10419;DHT22;5256;48.728;9.140;2023-02-15T06:08:35;-3.30;99.90
10419;DHT22;5256;48.728;9.140;2023-02-15T06:11:02;-3.30;99.90
10419;DHT22;5256;48.728;9.140;2023-02-15T06:13:27;-3.30;99.90
10419;DHT22;5256;48.728;9.140;2023-02-15T06:15:53;-3.30;99.90
10419;DHT22;5256;48.728;9.140;2023-02-15T06:18:19;-3.40;99.90
10419;DHT22;5256;48.728;9.140;2023-02-15T06:20:48;-3.40;99.90
10419;DHT22;5256;48.728;9.140;2023-02-15T06:23:14;-3.50;99.90
10419;DHT22;5256;48.728;9.140;2023-02-15T06:25:39;-3.50;99.90
10419;DHT22;5256;48.728;9.140;2023-02-15T06:28:05;-3.50;99.90
10419;DHT22;5256;48.728;9.140;2023-02-15T06:30:31;-3.50;99.90
10419;DHT22;5256;48.728;9.140;2023-02-15T06:32:57;-3.50;99.90
10419;DHT22;5256;48.728;9.140;2023-02-15T06:35:23;-3.40;99.90
10419;DHT22;5256;48.728;9.140;2023-02-15T06:37:48;-3.40;99.90
10419;DHT22;5256;48.728;9.140;2023-02-15T06:40:14;-3.30;99.90
10419;DHT22;5256;48.728;9.140;2023-02-15T06:42:41;-3.30;99.90
10419;DHT22;5256;48.728;9.140;2023-02-15T06:45:08;-3.30;99.90
10419;DHT22;5256;48.728;9.140;2023-02-15T06:47:34;-3.20;99.90
10419;DHT22;5256;48.728;9.140;2023-02-15T06:49:59;-3.20;99.90
10419;DHT22;5256;48.728;9.140;2023-02-15T06:52:25;-3.20;99.90
10419;DHT22;5256;48.728;9.140;2023-02-15T06:54:51;-3.20;99.90
10419;DHT22;5256;48.728;9.140;2023-02-15T06:57:16;-3.10;99.90
10419;DHT22;5256;48.728;9.140;2023-02-15T06:59:42;-3.10;99.90
10419;DHT22;5256;48.728;9.140;2023-02-15T07:02:10;-3.00;99.90
10419;DHT22;5256;48.728;9.140;2023-02-15T07:04:36;-3.00;99.90
10419;DHT22;5256;48.728;9.140;2023-02-15T07:07:02;-3.00;99.90
10419;DHT22;5256;48.728;9.140;2023-02-15T07:09:27;-2.90;99.90
10419;DHT22;5256;48.728;9.140;2023-02-15T07:11:53;-2.90;99.90
10419;DHT22;5256;48.728;9.140;2023-02-15T07:14:37;-2.80;99.90
10419;DHT22;5256;48.728;9.140;2023-02-15T07:17:02;-2.70;99.90
10419;DHT22;5256;48.728;9.140;2023-02-15T07:19:28;-2.60;99.90
10419;DHT22;5256;48.728;9.140;2023-02-15T07:21:53;-2.60;99.90
10419;DHT22;5256;48.728;9.140;2023-02-15T07:24:19;-2.50;99.90
10419;DHT22;5256;48.728;9.140;2023-02-15T07:26:44;-2.40;99.90
10419;DHT22;5256;48.728;9.140;2023-02-15T07:29:10;-2.30;99.90
10419;DHT22;5256;48.728;9.140;2023-02-15T07:31:36;-2.20;99.90
10419;DHT22;5256;48.728;9.140;2023-02-15T07:34:01;-2.20;99.90
10419;DHT22;5256;48.728;9.140;2023-02-15T07:36:27;-2.10;99.90
10419;DHT22;5256;48.728;9.140;2023-02-15T07:38:52;-2.00;99.90
10419;DHT22;5256;48.728;9.140;2023-02-15T07:41:18;-1.90;99.90
10419;DHT22;5256;48.728;9.140;2023-02-15T07:43:45;-1.70;99.90
10419;DHT22;5256;48.728;9.140;2023-02-15T07:46:13;-1.60;99.90
10419;DHT22;5256;48.728;9.140;2023-02-15T07:48:40;-1.50;99.90
10419;DHT22;5256;48.728;9.140;2023-02-15T07:51:07;-1.30;99.90
10419;DHT22;5256;48.728;9.140;2023-02-15T07:53:34;-1.10;99.90
10419;DHT22;5256;48.728;9.140;2023-02-15T07:56:05;-1.00;99.90
10419;DHT22;5256;48.728;9.140;2023-02-15T07:58:32;-0.60;99.90
10419;DHT22;5256;48.728;9.140;2023-02-15T08:01:17;-0.20;99.90
10419;DHT22;5256;48.728;9.140;2023-02-15T08:03:43;0.20;99.90
10419;DHT22;5256;48.728;9.140;2023-02-15T08:06:08;0.60;99.90
10419;DHT22;5256;48.728;9.140;2023-02-15T08:08:36;1.10;99.90
10419;DHT22;5256;48.728;9.140;2023-02-15T08:14:00;1.80;99.90
10419;DHT22;5256;48.728;9.140;2023-02-15T08:16:36;1.70;99.90
10419;DHT22;5256;48.728;9.140;2023-02-15T08:19:20;1.50;99.90
10419;DHT22;5256;48.728;9.140;2023-02-15T08:21:51;1.40;99.90
10419;DHT22;5256;48.728;9.140;2023-02-15T08:24:20;1.30;99.90
10419;DHT22;5256;48.728;9.140;2023-02-15T08:26:46;1.30;99.90
10419;DHT22;5256;48.728;9.140;2023-02-15T08:29:14;1.20;99.90
10419;DHT22;5256;48.728;9.140;2023-02-15T08:31:40;1.20;99.90
10419;DHT22;5256;48.728;9.140;2023-02-15T08:34:10;1.20;99.90
10419;DHT22;5256;48.728;9.140;2023-02-15T08:36:37;1.20;99.90
10419;DHT22;5256;48.728;9.140;2023-02-15T08:39:04;1.30;99.90
10419;DHT22;5256;48.728;9.140;2023-02-15T08:41:33;1.40;99.90
10419;DHT22;5256;48.728;9.140;2023-02-15T08:44:01;1.50;99.90
10419;DHT22;5256;48.728;9.140;2023-02-15T08:46:29;1.60;99.90
10419;DHT22;5256;48.728;9.140;2023-02-15T08:48:55;1.60;99.90
10419;DHT22;5256;48.728;9.140;2023-02-15T08:51:23;1.80;99.90
10419;DHT22;5256;48.728;9.140;2023-02-15T08:53:54;1.80;99.90
10419;DHT22;5256;48.728;9.140;2023-02-15T08:56:23;1.70;99.90
10419;DHT22;5256;48.728;9.140;2023-02-15T08:58:49;1.90;99.90
10419;DHT22;5256;48.728;9.140;2023-02-15T09:01:17;1.90;99.90
10419;DHT22;5256;48.728;9.140;2023-02-15T09:03:44;2.00;99.90
10419;DHT22;5256;48.728;9.140;2023-02-15T09:06:10;2.20;99.90
10419;DHT22;5256;48.728;9.140;2023-02-15T09:08:36;2.20;99.90
10419;DHT22;5256;48.728;9.140;2023-02-15T09:13:32;2.50;99.90
10419;DHT22;5256;48.728;9.140;2023-02-15T09:16:03;2.60;99.90
10419;DHT22;5256;48.728;9.140;2023-02-15T09:18:31;2.80;99.90
10419;DHT22;5256;48.728;9.140;2023-02-15T09:21:02;2.90;99.90
10419;DHT22;5256;48.728;9.140;2023-02-15T09:23:28;3.00;99.90
10419;DHT22;5256;48.728;9.140;2023-02-15T09:25:54;3.10;99.90
10419;DHT22;5256;48.728;9.140;2023-02-15T09:28:19;3.60;99.90
10419;DHT22;5256;48.728;9.140;2023-02-15T09:30:45;3.60;99.90
10419;DHT22;5256;48.728;9.140;2023-02-15T09:33:10;3.50;99.90
10419;DHT22;5256;48.728;9.140;2023-02-15T09:35:36;3.60;99.90
10419;DHT22;5256;48.728;9.140;2023-02-15T09:38:01;3.80;99.90
10419;DHT22;5256;48.728;9.140;2023-02-15T09:40:30;3.90;99.90
10419;DHT22;5256;48.728;9.140;2023-02-15T09:43:22;4.10;99.90
10419;DHT22;5256;48.728;9.140;2023-02-15T09:45:57;4.20;99.90
10419;DHT22;5256;48.728;9.140;2023-02-15T09:48:39;4.40;99.90
10419;DHT22;5256;48.728;9.140;2023-02-15T09:51:32;4.40;99.90
10419;DHT22;5256;48.728;9.140;2023-02-15T09:55:09;4.50;99.90
10419;DHT22;5256;48.728;9.140;2023-02-15T09:57:31;4.70;99.90
10419;DHT22;5256;48.728;9.140;2023-02-15T10:00:19;4.80;99.90
10419;DHT22;5256;48.728;9.140;2023-02-15T10:11:31;5.20;99.90
10419;DHT22;5256;48.728;9.140;2023-02-15T10:17:26;5.50;99.90
10419;DHT22;5256;48.728;9.140;2023-02-15T10:23:25;5.70;99.90
10419;DHT22;5256;48.728;9.140;2023-02-15T10:28:38;5.70;99.90
10419;DHT22;5256;48.728;9.140;2023-02-15T10:34:11;5.90;99.90
10419;DHT22;5256;48.728;9.140;2023-02-15T10:47:38;6.30;99.90
10419;DHT22;5256;48.728;9.140;2023-02-15T10:50:33;6.40;99.90
10419;DHT22;5256;48.728;9.140;2023-02-15T10:56:25;6.70;99.90
10419;DHT22;5256;48.728;9.140;2023-02-15T10:59:00;6.90;99.90
10419;DHT22;5256;48.728;9.140;2023-02-15T11:02:02;7.00;99.90
10419;DHT22;5256;48.728;9.140;2023-02-15T11:04:43;7.10;99.90
10419;DHT22;5256;48.728;9.140;2023-02-15T11:07:21;7.10;99.90
10419;DHT22;5256;48.728;9.140;2023-02-15T11:09:51;7.20;99.90
10419;DHT22;5256;48.728;9.140;2023-02-15T11:12:24;7.40;99.90
10419;DHT22;5256;48.728;9.140;2023-02-15T11:15:18;7.40;99.90
10419;DHT22;5256;48.728;9.140;2023-02-15T11:17:51;7.50;99.90
10419;DHT22;5256;48.728;9.140;2023-02-15T11:23:16;7.50;99.90
10419;DHT22;5256;48.728;9.140;2023-02-15T11:25:46;7.60;99.90
10419;DHT22;5256;48.728;9.140;2023-02-15T11:28:39;7.70;99.90
10419;DHT22;5256;48.728;9.140;2023-02-15T11:31:16;7.70;99.90
10419;DHT22;5256;48.728;9.140;2023-02-15T11:33:46;7.90;99.90
10419;DHT22;5256;48.728;9.140;2023-02-15T11:36:18;7.90;99.90
10419;DHT22;5256;48.728;9.140;2023-02-15T11:38:49;8.00;99.90
10419;DHT22;5256;48.728;9.140;2023-02-15T11:41:22;8.00;99.90
10419;DHT22;5256;48.728;9.140;2023-02-15T11:46:26;8.10;99.90
10419;DHT22;5256;48.728;9.140;2023-02-15T11:48:51;8.20;99.90
10419;DHT22;5256;48.728;9.140;2023-02-15T11:51:19;8.30;99.90
10419;DHT22;5256;48.728;9.140;2023-02-15T11:53:46;8.50;99.90
10419;DHT22;5256;48.728;9.140;2023-02-15T11:56:17;8.70;99.90
10419;DHT22;5256;48.728;9.140;2023-02-15T12:01:34;8.90;99.90
10419;DHT22;5256;48.728;9.140;2023-02-15T12:04:09;8.70;99.90
10419;DHT22;5256;48.728;9.140;2023-02-15T12:06:41;8.90;99.90
10419;DHT22;5256;48.728;9.140;2023-02-15T12:12:21;8.80;99.90
10419;DHT22;5256;48.728;9.140;2023-02-15T12:14:53;8.60;99.90
10419;DHT22;5256;48.728;9.140;2023-02-15T12:17:22;8.70;99.90
10419;DHT22;5256;48.728;9.140;2023-02-15T12:19:48;8.60;99.90
10419;DHT22;5256;48.728;9.140;2023-02-15T12:22:38;8.50;99.90
10419;DHT22;5256;48.728;9.140;2023-02-15T12:25:27;8.50;99.90
10419;DHT22;5256;48.728;9.140;2023-02-15T12:27:55;8.60;99.90
10419;DHT22;5256;48.728;9.140;2023-02-15T12:30:31;8.70;99.90
10419;DHT22;5256;48.728;9.140;2023-02-15T12:33:13;8.70;99.90
10419;DHT22;5256;48.728;9.140;2023-02-15T12:35:40;8.70;99.90
10419;DHT22;5256;48.728;9.140;2023-02-15T12:40:35;8.70;99.90
10419;DHT22;5256;48.728;9.140;2023-02-15T12:43:01;8.60;99.90
10419;DHT22;5256;48.728;9.140;2023-02-15T12:45:35;8.40;99.90
10419;DHT22;5256;48.728;9.140;2023-02-15T12:48:15;8.40;99.90
10419;DHT22;5256;48.728;9.140;2023-02-15T12:50:45;8.40;99.90
10419;DHT22;5256;48.728;9.140;2023-02-15T12:53:20;8.40;99.90
10419;DHT22;5256;48.728;9.140;2023-02-15T12:55:58;8.40;99.90
10419;DHT22;5256;48.728;9.140;2023-02-15T12:58:26;8.60;99.90
10419;DHT22;5256;48.728;9.140;2023-02-15T13:01:03;8.70;99.90
10419;DHT22;5256;48.728;9.140;2023-02-15T13:03:29;8.70;99.90
10419;DHT22;5256;48.728;9.140;2023-02-15T13:05:56;8.90;99.90
10419;DHT22;5256;48.728;9.140;2023-02-15T13:08:33;8.90;99.90
10419;DHT22;5256;48.728;9.140;2023-02-15T13:11:09;8.80;99.90
10419;DHT22;5256;48.728;9.140;2023-02-15T13:13:47;8.90;99.90
10419;DHT22;5256;48.728;9.140;2023-02-15T13:16:16;9.10;99.90
10419;DHT22;5256;48.728;9.140;2023-02-15T13:18:46;9.10;99.90
10419;DHT22;5256;48.728;9.140;2023-02-15T13:21:19;9.20;99.90
10419;DHT22;5256;48.728;9.140;2023-02-15T13:24:01;9.30;99.90
10419;DHT22;5256;48.728;9.140;2023-02-15T13:26:31;9.30;99.90
10419;DHT22;5256;48.728;9.140;2023-02-15T13:29:03;9.30;99.90
10419;DHT22;5256;48.728;9.140;2023-02-15T13:31:31;9.30;99.90
10419;DHT22;5256;48.728;9.140;2023-02-15T13:34:12;9.30;99.90
10419;DHT22;5256;48.728;9.140;2023-02-15T13:41:54;9.40;99.90
10419;DHT22;5256;48.728;9.140;2023-02-15T13:47:32;9.60;99.90
10419;DHT22;5256;48.728;9.140;2023-02-15T13:52:52;9.50;99.90
10419;DHT22;5256;48.728;9.140;2023-02-15T13:58:48;9.50;99.90
10419;DHT22;5256;48.728;9.140;2023-02-15T14:01:39;9.60;99.90
10419;DHT22;5256;48.728;9.140;2023-02-15T14:18:51;9.70;99.90
10419;DHT22;5256;48.728;9.140;2023-02-15T14:21:30;9.70;99.90
10419;DHT22;5256;48.728;9.140;2023-02-15T14:27:12;10.00;99.90
10419;DHT22;5256;48.728;9.140;2023-02-15T14:30:02;9.90;99.90
10419;DHT22;5256;48.728;9.140;2023-02-15T14:32:38;10.10;99.90
10419;DHT22;5256;48.728;9.140;2023-02-15T14:35:14;10.20;99.90
10419;DHT22;5256;48.728;9.140;2023-02-15T14:48:45;10.20;99.90
10419;DHT22;5256;48.728;9.140;2023-02-15T14:54:08;10.20;99.90
10419;DHT22;5256;48.728;9.140;2023-02-15T14:56:34;10.20;99.90
10419;DHT22;5256;48.728;9.140;2023-02-15T14:59:18;10.30;99.90
10419;DHT22;5256;48.728;9.140;2023-02-15T15:02:21;10.20;99.90
10419;DHT22;5256;48.728;9.140;2023-02-15T15:05:23;10.30;99.90
10419;DHT22;5256;48.728;9.140;2023-02-15T15:07:54;10.20;99.90
10419;DHT22;5256;48.728;9.140;2023-02-15T15:12:53;10.20;99.90
10419;DHT22;5256;48.728;9.140;2023-02-15T15:21:04;9.80;99.90
10419;DHT22;5256;48.728;9.140;2023-02-15T15:24:05;9.80;99.90
10419;DHT22;5256;48.728;9.140;2023-02-15T15:26:32;9.90;99.90
10419;DHT22;5256;48.728;9.140;2023-02-15T15:29:03;9.80;99.90
10419;DHT22;5256;48.728;9.140;2023-02-15T15:31:39;9.70;99.90
10419;DHT22;5256;48.728;9.140;2023-02-15T15:34:33;9.70;99.90
10419;DHT22;5256;48.728;9.140;2023-02-15T15:37:28;9.70;99.90
10419;DHT22;5256;48.728;9.140;2023-02-15T15:45:49;9.60;99.90
10419;DHT22;5256;48.728;9.140;2023-02-15T15:48:36;9.60;99.90
10419;DHT22;5256;48.728;9.140;2023-02-15T15:53:45;9.50;99.90
10419;DHT22;5256;48.728;9.140;2023-02-15T15:56:19;9.40;99.90
10419;DHT22;5256;48.728;9.140;2023-02-15T15:59:12;9.40;99.90
10419;DHT22;5256;48.728;9.140;2023-02-15T16:01:42;9.20;99.90
10419;DHT22;5256;48.728;9.140;2023-02-15T16:04:13;9.20;99.90
10419;DHT22;5256;48.728;9.140;2023-02-15T16:06:40;9.20;99.90
10419;DHT22;5256;48.728;9.140;2023-02-15T16:09:15;9.20;99.90
10419;DHT22;5256;48.728;9.140;2023-02-15T16:11:41;9.20;99.90
10419;DHT22;5256;48.728;9.140;2023-02-15T16:14:15;9.00;99.90
10419;DHT22;5256;48.728;9.140;2023-02-15T16:16:47;8.90;99.90
10419;DHT22;5256;48.728;9.140;2023-02-15T16:19:42;8.70;99.90
10419;DHT22;5256;48.728;9.140;2023-02-15T16:22:15;8.50;99.90
10419;DHT22;5256;48.728;9.140;2023-02-15T16:27:33;8.00;99.90
10419;DHT22;5256;48.728;9.140;2023-02-15T16:32:45;7.60;99.90
10419;DHT22;5256;48.728;9.140;2023-02-15T16:35:22;7.20;99.90
10419;DHT22;5256;48.728;9.140;2023-02-15T16:37:48;6.90;99.90
10419;DHT22;5256;48.728;9.140;2023-02-15T16:42:49;6.50;99.90
10419;DHT22;5256;48.728;9.140;2023-02-15T16:45:19;6.40;99.90
10419;DHT22;5256;48.728;9.140;2023-02-15T16:47:48;6.20;99.90
10419;DHT22;5256;48.728;9.140;2023-02-15T16:50:33;6.10;99.90
10419;DHT22;5256;48.728;9.140;2023-02-15T16:53:00;6.00;99.90
10419;DHT22;5256;48.728;9.140;2023-02-15T16:55:30;5.80;99.90
10419;DHT22;5256;48.728;9.140;2023-02-15T16:58:01;5.50;99.90
10419;DHT22;5256;48.728;9.140;2023-02-15T17:00:31;5.30;99.90
10419;DHT22;5256;48.728;9.140;2023-02-15T17:03:06;5.10;99.90
10419;DHT22;5256;48.728;9.140;2023-02-15T17:09:03;5.00;99.90
10419;DHT22;5256;48.728;9.140;2023-02-15T17:11:40;4.90;99.90
10419;DHT22;5256;48.728;9.140;2023-02-15T17:16:50;4.50;99.90
10419;DHT22;5256;48.728;9.140;2023-02-15T17:19:28;4.50;99.90
10419;DHT22;5256;48.728;9.140;2023-02-15T17:22:01;4.30;99.90
10419;DHT22;5256;48.728;9.140;2023-02-15T17:24:37;4.10;99.90
10419;DHT22;5256;48.728;9.140;2023-02-15T17:27:14;4.00;99.90
10419;DHT22;5256;48.728;9.140;2023-02-15T17:29:47;3.90;99.90
10419;DHT22;5256;48.728;9.140;2023-02-15T17:32:25;3.90;99.90
10419;DHT22;5256;48.728;9.140;2023-02-15T17:40:16;3.80;99.90
10419;DHT22;5256;48.728;9.140;2023-02-15T17:42:43;3.70;99.90
10419;DHT22;5256;48.728;9.140;2023-02-15T17:45:08;3.60;99.90
10419;DHT22;5256;48.728;9.140;2023-02-15T17:47:34;3.50;99.90
10419;DHT22;5256;48.728;9.140;2023-02-15T17:50:03;3.50;99.90
10419;DHT22;5256;48.728;9.140;2023-02-15T17:52:29;3.50;99.90
10419;DHT22;5256;48.728;9.140;2023-02-15T17:54:55;3.40;99.90
10419;DHT22;5256;48.728;9.140;2023-02-15T17:57:40;3.40;99.90
10419;DHT22;5256;48.728;9.140;2023-02-15T18:00:06;3.40;99.90
10419;DHT22;5256;48.728;9.140;2023-02-15T18:02:50;3.30;99.90
10419;DHT22;5256;48.728;9.140;2023-02-15T18:05:35;3.30;99.90
10419;DHT22;5256;48.728;9.140;2023-02-15T18:08:26;3.20;99.90
10419;DHT22;5256;48.728;9.140;2023-02-15T18:11:11;3.20;99.90
10419;DHT22;5256;48.728;9.140;2023-02-15T18:13:56;3.20;99.90
10419;DHT22;5256;48.728;9.140;2023-02-15T18:16:27;3.10;99.90
10419;DHT22;5256;48.728;9.140;2023-02-15T18:18:53;3.10;99.90
10419;DHT22;5256;48.728;9.140;2023-02-15T18:21:19;3.10;99.90
10419;DHT22;5256;48.728;9.140;2023-02-15T18:23:45;3.00;99.90
10419;DHT22;5256;48.728;9.140;2023-02-15T18:26:17;2.90;99.90
10419;DHT22;5256;48.728;9.140;2023-02-15T18:28:43;2.80;99.90
10419;DHT22;5256;48.728;9.140;2023-02-15T18:31:10;2.80;99.90
10419;DHT22;5256;48.728;9.140;2023-02-15T18:33:47;2.60;99.90
10419;DHT22;5256;48.728;9.140;2023-02-15T18:36:21;2.60;99.90
10419;DHT22;5256;48.728;9.140;2023-02-15T18:38:47;2.60;99.90
10419;DHT22;5256;48.728;9.140;2023-02-15T18:41:16;2.50;99.90
10419;DHT22;5256;48.728;9.140;2023-02-15T18:43:43;2.40;99.90
10419;DHT22;5256;48.728;9.140;2023-02-15T18:46:08;2.40;99.90
10419;DHT22;5256;48.728;9.140;2023-02-15T18:48:34;2.40;99.90
10419;DHT22;5256;48.728;9.140;2023-02-15T18:51:00;2.40;99.90
10419;DHT22;5256;48.728;9.140;2023-02-15T18:53:25;2.30;99.90
10419;DHT22;5256;48.728;9.140;2023-02-15T18:55:51;2.40;99.90
10419;DHT22;5256;48.728;9.140;2023-02-15T18:58:19;2.40;99.90